Time;durP1;ratioP1;P1;durP2;ratioP2;P2;SDS_P1;SDS_P2;PMS_P1;PMS_P2;Temp;Humidity;BMP_temperature;BMP_pressure;BME280_temperature;BME280_humidity;BME280_pressure;Samples;Min_cycle;Max_cycle;Signal;HPM_P1;HPM_P2
2022/06/21 00:02:20;;;;;;;22.90;5.68;;;;;;;12.70;71.63;99651.75;5033005;28;20785;-71
2022/06/21 00:04:49;;;;;;;8.60;5.00;;;;;;;12.71;72.02;99655.22;5038396;28;20075;-72
2022/06/21 00:07:19;;;;;;;11.60;5.53;;;;;;;12.70;71.25;99654.38;5021647;28;20567;-72
2022/06/21 00:09:46;;;;;;;9.55;4.45;;;;;;;12.70;71.83;99657.03;5009444;28;20050;-71
2022/06/21 00:12:14;;;;;;;9.48;4.75;;;;;;;12.71;71.15;99658.72;5000433;28;20049;-71
2022/06/21 00:14:40;;;;;;;6.25;3.60;;;;;;;12.65;71.28;99654.66;5031759;28;20760;-70
2022/06/21 00:17:12;;;;;;;12.02;4.38;;;;;;;12.61;70.74;99660.22;5027140;28;20049;-72
2022/06/21 00:19:41;;;;;;;9.40;5.18;;;;;;;12.57;71.35;99645.47;5040088;28;20083;-71
2022/06/21 00:22:13;;;;;;;7.30;4.53;;;;;;;12.51;71.28;99657.25;5023568;28;20056;-72
2022/06/21 00:24:39;;;;;;;9.10;4.63;;;;;;;12.42;72.40;99641.94;5032709;28;20049;-72
2022/06/21 00:27:12;;;;;;;9.55;6.00;;;;;;;12.36;72.66;99634.38;5029832;28;20761;-72
2022/06/21 00:29:39;;;;;;;14.38;7.15;;;;;;;12.33;72.64;99640.69;4999043;28;20483;-71
2022/06/21 00:32:07;;;;;;;8.05;4.03;;;;;;;12.23;72.35;99634.22;5031209;28;20049;-72
2022/06/21 00:34:33;;;;;;;6.65;5.15;;;;;;;12.13;73.12;99649.75;5021973;28;20566;-73
2022/06/21 00:37:01;;;;;;;6.68;4.88;;;;;;;12.11;72.80;99642.88;5038462;28;20048;-74
2022/06/21 00:39:28;;;;;;;8.68;4.47;;;;;;;12.07;72.36;99644.84;5029225;28;20072;-72
2022/06/21 00:41:57;;;;;;;8.45;4.55;;;;;;;12.04;72.66;99642.41;5040997;28;20533;-71
2022/06/21 00:44:42;;;;;;;9.30;4.65;;;;;;;11.99;73.23;99645.31;5033745;28;20060;-71
2022/06/21 00:47:16;;;;;;;9.27;4.57;;;;;;;11.95;73.18;99648.19;5005945;28;20453;-69
2022/06/21 00:49:50;;;;;;;9.35;4.47;;;;;;;11.86;73.69;99633.69;5041270;28;20073;-69
2022/06/21 00:52:21;;;;;;;7.05;4.68;;;;;;;11.84;73.28;99635.59;5032442;28;20055;-69
2022/06/21 00:54:55;;;;;;;7.90;4.38;;;;;;;11.81;73.20;99636.59;5027501;28;20049;-69
2022/06/21 00:57:27;;;;;;;12.93;5.28;;;;;;;11.75;73.56;99649.28;5037330;28;20064;-70
2022/06/21 00:59:58;;;;;;;13.75;4.30;;;;;;;11.61;74.06;99635.06;5028997;28;20048;-69
2022/06/21 01:02:35;;;;;;;8.90;4.85;;;;;;;11.56;74.23;99633.63;4972304;28;20442;-70
2022/06/21 01:05:03;;;;;;;11.70;5.35;;;;;;;11.56;74.25;99636.25;5011970;28;20075;-70
2022/06/21 01:07:32;;;;;;;10.73;4.93;;;;;;;11.58;74.34;99629.13;5018712;28;20076;-70
2022/06/21 01:10:05;;;;;;;9.18;4.93;;;;;;;11.60;73.74;99627.25;5024542;28;20458;-70
2022/06/21 01:12:37;;;;;;;8.55;5.90;;;;;;;11.58;74.03;99629.13;5018039;28;20577;-69
2022/06/21 01:15:09;;;;;;;6.25;4.45;;;;;;;11.58;73.82;99624.69;5001950;28;20062;-70
2022/06/21 01:17:37;;;;;;;7.75;5.38;;;;;;;11.52;74.21;99624.19;5022491;28;20065;-70
2022/06/21 01:20:07;;;;;;;11.18;5.00;;;;;;;11.46;74.56;99635.91;5016223;28;20049;-69
2022/06/21 01:22:43;;;;;;;7.43;4.93;;;;;;;11.42;74.67;99625.63;5014482;28;20054;-69
2022/06/21 01:25:28;;;;;;;8.77;6.03;;;;;;;11.39;74.52;99618.72;5019937;28;20053;-68
2022/06/21 01:27:57;;;;;;;8.43;4.50;;;;;;;11.36;74.68;99610.97;5008836;28;20045;-69
2022/06/21 01:30:24;;;;;;;11.55;6.53;;;;;;;11.37;74.30;99604.75;5024948;28;20045;-69
2022/06/21 01:32:51;;;;;;;9.57;5.40;;;;;;;11.38;74.26;99602.03;5024407;28;20128;-70
2022/06/21 01:35:28;;;;;;;9.48;4.95;;;;;;;11.36;73.96;99601.25;5008447;28;20149;-71
2022/06/21 01:37:55;;;;;;;11.13;5.68;;;;;;;11.32;74.16;99605.03;5008182;28;20049;-71
2022/06/21 01:40:26;;;;;;;14.00;6.65;;;;;;;11.20;74.88;99600.44;5024535;28;20461;-71
2022/06/21 01:42:58;;;;;;;12.45;5.70;;;;;;;11.18;75.39;99604.94;5011735;28;20050;-70
2022/06/21 01:45:28;;;;;;;7.28;5.25;;;;;;;11.14;75.08;99600.75;5021125;28;20505;-70
2022/06/21 01:48:02;;;;;;;12.73;5.82;;;;;;;11.10;75.35;99618.53;5008952;28;20167;-70
2022/06/21 01:50:28;;;;;;;14.82;5.72;;;;;;;11.07;75.33;99617.84;5015385;28;20053;-70
2022/06/21 01:52:56;;;;;;;11.75;8.30;;;;;;;11.03;75.38;99611.88;5017272;28;20056;-70
2022/06/21 01:55:29;;;;;;;11.15;6.20;;;;;;;10.97;75.51;99601.66;5007567;28;20131;-70
2022/06/21 01:57:59;;;;;;;10.93;5.72;;;;;;;10.92;75.98;99601.06;5019076;28;20125;-69
2022/06/21 02:00:27;;;;;;;11.93;4.60;;;;;;;10.83;76.27;99586.59;5013355;28;20132;-70
2022/06/21 02:02:58;;;;;;;9.85;4.75;;;;;;;10.88;75.90;99591.63;5007784;28;20131;-70
2022/06/21 02:05:32;;;;;;;6.63;5.22;;;;;;;10.94;75.36;99589.47;5014860;28;20045;-69
2022/06/21 02:08:06;;;;;;;9.40;4.43;;;;;;;10.96;75.06;99592.91;5020843;28;20476;-69
2022/06/21 02:10:36;;;;;;;9.05;4.05;;;;;;;10.95;75.21;99585.94;5009464;28;20058;-70
2022/06/21 02:13:09;;;;;;;6.00;4.57;;;;;;;10.98;75.17;99589.31;5018312;28;20140;-69
2022/06/21 02:15:39;;;;;;;6.10;4.40;;;;;;;10.95;75.30;99588.56;5007800;28;20100;-69
2022/06/21 02:18:10;;;;;;;12.25;5.05;;;;;;;10.88;75.37;99591.63;5006009;28;20060;-68
2022/06/21 02:20:43;;;;;;;11.05;5.05;;;;;;;10.83;75.36;99588.34;5024127;28;20049;-69
2022/06/21 02:23:13;;;;;;;6.07;4.45;;;;;;;10.83;75.47;99577.81;5009135;28;20045;-69
2022/06/21 02:25:41;;;;;;;11.65;4.63;;;;;;;10.80;75.57;99570.91;5025728;28;20057;-69
2022/06/21 02:28:16;;;;;;;8.32;4.72;;;;;;;10.80;75.33;99563.00;5023141;28;20060;-69
2022/06/21 02:30:44;;;;;;;11.83;5.63;;;;;;;10.81;75.71;99563.88;5023339;28;20049;-70
2022/06/21 02:33:14;;;;;;;12.25;4.70;;;;;;;10.75;75.38;99570.31;5029373;28;20077;-70
2022/06/21 02:35:46;;;;;;;10.82;4.80;;;;;;;10.70;75.65;99565.28;5013682;28;20054;-70
2022/06/21 02:38:17;;;;;;;7.13;4.82;;;;;;;10.70;75.79;99572.34;5018191;28;20148;-70
2022/06/21 02:40:48;;;;;;;11.13;5.00;;;;;;;10.65;75.89;99569.09;5016413;28;20052;-70
2022/06/21 02:43:19;;;;;;;10.18;3.80;;;;;;;10.61;76.00;99572.81;5009889;28;20060;-70
2022/06/21 02:45:50;;;;;;;7.97;4.97;;;;;;;10.63;75.78;99584.13;5023047;28;20042;-70
2022/06/21 02:48:21;;;;;;;9.60;4.30;;;;;;;10.62;75.68;99570.09;5022404;28;20063;-70
2022/06/21 02:50:53;;;;;;;10.52;5.32;;;;;;;10.57;75.58;99553.69;5015730;28;20053;-70
2022/06/21 02:53:24;;;;;;;10.98;4.20;;;;;;;10.64;75.53;99551.59;5014253;28;20071;-69
2022/06/21 02:55:55;;;;;;;7.13;4.72;;;;;;;10.66;75.09;99553.22;5009058;28;20072;-69
2022/06/21 02:58:29;;;;;;;9.38;4.80;;;;;;;10.66;75.22;99549.72;5028521;28;20129;-69
2022/06/21 03:00:57;;;;;;;6.13;4.10;;;;;;;10.66;75.34;99555.84;5024011;28;20060;-69
2022/06/21 03:03:28;;;;;;;16.42;5.88;;;;;;;10.66;75.08;99557.63;5027871;28;20580;-69
2022/06/21 03:05:58;;;;;;;7.10;6.03;;;;;;;10.61;75.75;99565.78;5029959;28;20129;-69
2022/06/21 03:08:28;;;;;;;6.22;4.28;;;;;;;10.57;75.79;99560.75;5031881;28;20127;-68
2022/06/21 03:10:56;;;;;;;8.18;5.50;;;;;;;10.56;75.28;99552.00;5030362;28;20053;-69
2022/06/21 03:13:28;;;;;;;7.47;4.85;;;;;;;10.54;75.65;99548.59;5023125;28;20144;-69
2022/06/21 03:15:58;;;;;;;8.25;4.90;;;;;;;10.58;75.43;99551.91;5003485;28;20843;-69
2022/06/21 03:18:28;;;;;;;6.28;4.25;;;;;;;10.62;75.30;99561.34;4991703;28;20104;-71
2022/06/21 03:20:56;;;;;;;11.77;5.50;;;;;;;10.62;75.45;99570.09;5007861;28;20046;-69
2022/06/21 03:23:23;;;;;;;6.20;4.30;;;;;;;10.60;74.99;99571.13;5007313;28;20045;-70
2022/06/21 03:25:53;;;;;;;9.77;5.78;;;;;;;10.59;75.38;99574.72;4993175;28;20141;-71
2022/06/21 03:28:29;;;;;;;10.13;6.18;;;;;;;10.59;74.92;99577.34;5008360;28;20060;-71
2022/06/21 03:31:02;;;;;;;9.90;6.40;;;;;;;10.51;75.71;99583.88;5025332;28;20049;-71
2022/06/21 03:33:30;;;;;;;9.95;4.88;;;;;;;10.48;75.98;99580.53;5007711;28;20049;-70
2022/06/21 03:35:57;;;;;;;7.50;4.53;;;;;;;10.48;75.32;99578.75;5011407;28;20084;-71
2022/06/21 03:38:24;;;;;;;10.27;5.63;;;;;;;10.45;75.52;99581.53;5026486;28;20131;-70
2022/06/21 03:43:42;;;;;;;7.43;4.57;;;;;;;10.43;75.87;99587.81;4993626;28;20537;-70
2022/06/21 03:46:14;;;;;;;7.95;5.53;;;;;;;10.37;75.79;99572.34;5019846;28;20054;-70
2022/06/21 03:48:47;;;;;;;7.70;5.28;;;;;;;10.32;76.57;99577.84;5017532;28;20049;-70
2022/06/21 03:51:17;;;;;;;7.90;4.85;;;;;;;10.32;76.34;99576.06;5010972;28;20080;-72
2022/06/21 03:53:49;;;;;;;11.07;5.85;;;;;;;10.30;76.04;99572.63;5022865;28;20054;-71
2022/06/21 03:56:20;;;;;;;6.90;4.28;;;;;;;10.25;76.72;99572.00;5017736;28;20116;-71
2022/06/21 03:58:54;;;;;;;15.15;5.35;;;;;;;10.28;76.40;99573.66;5026260;28;20141;-71
2022/06/21 04:01:27;;;;;;;7.37;4.63;;;;;;;10.34;76.07;99570.72;5021308;28;20045;-72
2022/06/21 04:04:00;;;;;;;5.95;4.80;;;;;;;10.36;76.23;99566.22;5011061;28;20049;-72
2022/06/21 04:06:34;;;;;;;6.38;4.90;;;;;;;10.42;76.13;99563.25;5025780;28;20136;-72
2022/06/21 04:09:05;;;;;;;9.65;4.70;;;;;;;10.44;75.75;99560.56;5012639;28;20144;-72
2022/06/21 04:11:39;;;;;;;8.57;4.72;;;;;;;10.50;75.99;99560.22;5022917;28;20083;-73
2022/06/21 04:14:22;;;;;;;5.97;4.15;;;;;;;10.50;76.37;99554.94;5012563;28;20045;-71
2022/06/21 04:16:55;;;;;;;9.13;5.25;;;;;;;10.55;76.00;99544.16;5013734;28;20053;-72
2022/06/21 04:19:28;;;;;;;10.27;6.72;;;;;;;10.63;75.46;99528.78;5036657;28;20099;-72
2022/06/21 04:22:12;;;;;;;6.78;4.72;;;;;;;10.70;75.24;99523.09;5021457;28;20052;-70
2022/06/21 04:24:44;;;;;;;10.35;4.70;;;;;;;10.79;75.16;99520.91;5016166;28;20045;-71
2022/06/21 04:27:18;;;;;;;12.18;5.53;;;;;;;10.90;75.33;99526.44;5009677;28;20141;-71
2022/06/21 04:29:53;;;;;;;6.60;4.65;;;;;;;11.00;75.17;99518.88;5022200;28;20045;-71
2022/06/21 04:32:25;;;;;;;10.63;5.78;;;;;;;11.08;74.69;99514.03;5007453;28;20054;-71
2022/06/21 04:34:58;;;;;;;7.90;5.07;;;;;;;11.17;74.33;99526.69;5013604;28;20505;-71
2022/06/21 04:37:36;;;;;;;7.22;5.05;;;;;;;11.24;74.28;99530.69;5021747;28;20158;-71
2022/06/21 04:40:08;;;;;;;7.10;4.50;;;;;;;11.31;74.30;99531.22;5018710;28;20052;-72
2022/06/21 04:42:39;;;;;;;9.43;6.20;;;;;;;11.38;74.30;99519.38;5019469;28;20785;-72
2022/06/21 04:45:14;;;;;;;7.00;4.70;;;;;;;11.47;74.34;99520.63;4999547;28;20050;-72
2022/06/21 04:47:47;;;;;;;7.88;4.68;;;;;;;11.57;73.75;99527.94;5010050;28;20050;-72
2022/06/21 04:50:25;;;;;;;10.15;5.28;;;;;;;11.68;74.00;99524.66;5013376;28;20150;-72
2022/06/21 04:52:57;;;;;;;10.88;6.55;;;;;;;11.76;73.21;99518.94;5025389;28;20051;-72
2022/06/21 04:55:31;;;;;;;7.63;5.30;;;;;;;11.80;73.07;99523.97;5021745;28;20527;-72
2022/06/21 04:57:58;;;;;;;9.13;4.97;;;;;;;11.93;73.04;99528.56;5017355;28;20045;-72
2022/06/21 05:00:26;;;;;;;9.18;6.13;;;;;;;12.05;73.22;99537.56;5014628;28;20142;-72
2022/06/21 05:02:57;;;;;;;9.05;5.20;;;;;;;12.14;72.43;99521.16;5013727;28;20161;-73
2022/06/21 05:05:28;;;;;;;6.88;5.32;;;;;;;12.29;72.54;99524.66;5022859;28;20049;-73
2022/06/21 05:07:59;;;;;;;6.93;5.28;;;;;;;12.39;72.53;99531.09;5010017;28;20133;-73
2022/06/21 05:10:29;;;;;;;7.38;5.22;;;;;;;12.53;71.30;99531.09;5016897;28;20054;-72
2022/06/21 05:12:58;;;;;;;11.27;5.40;;;;;;;12.66;70.89;99539.13;5018276;28;20051;-73
2022/06/21 05:15:29;;;;;;;10.38;5.25;;;;;;;12.81;70.61;99550.56;4997455;28;20053;-72
2022/06/21 05:17:59;;;;;;;9.93;6.40;;;;;;;12.94;69.36;99538.25;5018236;28;20071;-72
2022/06/21 05:20:29;;;;;;;10.35;5.28;;;;;;;13.04;69.78;99539.38;5022396;28;20125;-73
2022/06/21 05:23:01;;;;;;;9.70;5.80;;;;;;;13.19;68.82;99532.25;5012072;28;20141;-72
2022/06/21 05:25:31;;;;;;;10.98;6.68;;;;;;;13.35;68.31;99536.59;5021012;28;20056;-72
2022/06/21 05:28:02;;;;;;;15.38;6.22;;;;;;;13.45;68.98;99535.88;5009222;28;20505;-72
2022/06/21 05:30:39;;;;;;;44.28;31.05;;;;;;;13.61;68.17;99532.22;5015066;28;20060;-72
2022/06/21 05:33:12;;;;;;;16.00;11.10;;;;;;;13.76;67.50;99533.88;4992759;28;20073;-71
2022/06/21 05:35:39;;;;;;;11.98;6.47;;;;;;;13.86;67.63;99521.72;5007638;28;20185;-71
2022/06/21 05:38:10;;;;;;;10.95;7.15;;;;;;;13.98;67.40;99514.75;4990132;28;20108;-72
2022/06/21 05:40:42;;;;;;;14.35;6.07;;;;;;;14.14;66.43;99518.03;5013798;28;20080;-71
2022/06/21 05:43:14;;;;;;;10.82;7.43;;;;;;;14.37;66.13;99526.22;4999982;28;20099;-72
2022/06/21 05:45:48;;;;;;;9.93;6.40;;;;;;;14.57;65.67;99528.38;5021122;28;20136;-72
2022/06/21 05:48:23;;;;;;;11.20;6.82;;;;;;;14.81;63.68;99516.97;5011287;28;20553;-73
2022/06/21 05:50:51;;;;;;;13.85;6.47;;;;;;;15.11;62.84;99516.59;4981307;28;20809;-72
2022/06/21 05:53:27;;;;;;;11.40;6.95;;;;;;;15.38;61.40;99520.84;5022955;28;20048;-72
2022/06/21 05:55:54;;;;;;;10.65;5.80;;;;;;;15.67;60.34;99516.88;4982407;28;20575;-72
2022/06/21 05:58:26;;;;;;;10.85;6.30;;;;;;;15.72;59.93;99521.88;5023666;28;20134;-72
2022/06/21 06:01:01;;;;;;;7.68;5.57;;;;;;;15.74;60.28;99525.28;5020281;28;20126;-71
2022/06/21 06:03:33;;;;;;;13.20;6.35;;;;;;;15.70;60.03;99530.94;4993508;28;20134;-72
2022/06/21 06:06:05;;;;;;;19.67;5.43;;;;;;;15.73;60.34;99539.53;5022468;28;20420;-72
2022/06/21 06:08:36;;;;;;;14.80;6.85;;;;;;;15.84;59.81;99542.22;5002344;28;20076;-73
2022/06/21 06:11:08;;;;;;;8.73;5.78;;;;;;;15.98;59.71;99529.72;5023903;28;20053;-73
2022/06/21 06:13:39;;;;;;;11.55;6.63;;;;;;;16.01;59.36;99519.69;5022164;28;20049;-72
2022/06/21 06:16:17;;;;;;;14.88;7.93;;;;;;;16.09;59.41;99516.44;5023774;28;20119;-72
2022/06/21 06:18:51;;;;;;;13.45;5.80;;;;;;;16.17;58.97;99515.84;5023430;28;20042;-72
2022/06/21 06:21:23;;;;;;;10.93;6.55;;;;;;;16.24;58.35;99507.31;5004081;28;20055;-72
2022/06/21 06:23:56;;;;;;;11.27;5.07;;;;;;;16.25;57.92;99506.31;5007651;28;20519;-73
2022/06/21 06:26:27;;;;;;;10.10;4.82;;;;;;;16.37;58.06;99501.88;5023106;28;20049;-72
2022/06/21 06:29:05;;;;;;;15.35;5.47;;;;;;;16.48;58.02;99501.03;5011484;28;20516;-72
2022/06/21 06:31:40;;;;;;;10.98;4.90;;;;;;;16.58;57.52;99503.81;5023827;28;20044;-72
2022/06/21 06:34:12;;;;;;;14.43;6.78;;;;;;;16.68;56.96;99520.75;5016126;28;20042;-74
2022/06/21 06:36:43;;;;;;;14.75;6.05;;;;;;;16.72;56.11;99528.38;5014854;28;20054;-74
2022/06/21 06:39:18;;;;;;;5.03;3.95;;;;;;;16.86;55.70;99526.44;5023093;28;20049;-74
2022/06/21 06:41:52;;;;;;;12.65;5.53;;;;;;;17.02;55.13;99534.91;5006826;28;20563;-73
2022/06/21 06:44:21;;;;;;;12.48;4.47;;;;;;;16.97;55.55;99528.28;4994208;28;20057;-73
2022/06/21 06:46:51;;;;;;;8.20;5.13;;;;;;;17.05;54.93;99531.16;5022273;28;20817;-72
2022/06/21 06:49:24;;;;;;;9.43;4.10;;;;;;;17.12;55.05;99527.03;5018082;28;20050;-72
2022/06/21 06:51:59;;;;;;;7.15;4.57;;;;;;;17.23;53.95;99528.81;5024913;28;20057;-46
2022/06/21 06:54:45;;;;;;;9.73;5.15;;;;;;;17.34;53.66;99523.47;5018433;28;20057;-49
2022/06/21 06:57:21;;;;;;;16.08;8.18;;;;;;;17.42;54.13;99513.03;5021834;28;20493;-49
2022/06/21 06:59:48;;;;;;;20.10;6.63;;;;;;;17.57;53.96;99525.13;5011404;28;20056;-50
2022/06/21 07:02:23;;;;;;;22.40;11.57;;;;;;;17.80;53.62;99528.56;5027477;28;20513;-48
2022/06/21 07:04:58;;;;;;;13.80;5.97;;;;;;;18.05;52.59;99539.84;5015103;28;20060;-53
2022/06/21 07:07:32;;;;;;;8.77;4.23;;;;;;;18.29;52.42;99546.75;5023523;28;20111;-53
2022/06/21 07:10:04;;;;;;;17.67;9.13;;;;;;;18.36;51.64;99535.44;5012656;28;20704;-49
2022/06/21 07:12:31;;;;;;;8.73;5.13;;;;;;;18.41;51.37;99543.00;5017213;28;20080;-49
2022/06/21 07:14:59;;;;;;;11.07;6.88;;;;;;;18.42;51.41;99531.38;5019915;28;20602;-53
2022/06/21 07:17:34;;;;;;;14.35;7.97;;;;;;;18.42;51.69;99534.03;4986752;28;20057;-53
2022/06/21 07:20:00;;;;;;;10.37;5.17;;;;;;;18.39;51.56;99535.16;5026882;28;20765;-51
2022/06/21 07:22:33;;;;;;;12.45;4.45;;;;;;;18.79;51.43;99538.91;5008105;28;20550;-49
2022/06/21 07:25:05;;;;;;;10.20;4.32;;;;;;;19.32;48.33;99533.31;5005376;28;20095;-51
2022/06/21 07:27:35;;;;;;;7.28;3.97;;;;;;;19.41;47.97;99523.59;5009787;28;20531;-53
2022/06/21 07:30:06;;;;;;;11.82;4.85;;;;;;;19.69;46.39;99509.44;5026858;28;20050;-53
2022/06/21 07:32:38;;;;;;;10.23;3.63;;;;;;;19.75;47.23;99520.56;5026557;28;20057;-56
2022/06/21 07:35:10;;;;;;;7.72;3.92;;;;;;;19.77;45.96;99506.06;5012813;28;20050;-54
2022/06/21 07:37:42;;;;;;;10.27;4.10;;;;;;;19.87;45.79;99496.19;5022822;28;20421;-71
2022/06/21 07:40:13;;;;;;;8.27;5.20;;;;;;;19.91;44.21;99486.03;5010121;28;20061;-72
2022/06/21 07:42:43;;;;;;;9.50;4.43;;;;;;;19.88;44.06;99489.00;5005633;28;20207;-70
2022/06/21 07:45:16;;;;;;;8.02;3.70;;;;;;;19.73;44.84;99491.28;5025812;28;20103;-71
2022/06/21 07:47:50;;;;;;;9.68;3.90;;;;;;;19.68;45.42;99489.03;5006664;28;20101;-69
2022/06/21 07:50:22;;;;;;;8.02;4.65;;;;;;;19.49;45.79;99479.16;5014982;28;20053;-69
2022/06/21 07:52:53;;;;;;;9.30;4.28;;;;;;;19.49;44.82;99484.50;5014781;28;20050;-71
2022/06/21 07:55:24;;;;;;;9.38;5.00;;;;;;;19.46;44.49;99484.75;5022820;28;20052;-70
2022/06/21 07:57:55;;;;;;;13.05;4.32;;;;;;;19.46;43.60;99481.25;5010415;28;20045;-70
2022/06/21 08:00:23;;;;;;;10.02;4.57;;;;;;;19.26;44.08;99477.72;5026744;28;20053;-72
2022/06/21 08:08:35;;;;;;;10.73;4.57;;;;;;;19.35;43.79;99470.69;5016078;28;20528;-72
2022/06/21 08:11:08;;;;;;;10.57;3.55;;;;;;;19.34;43.62;99459.13;5025929;28;20095;-72
2022/06/21 08:13:34;;;;;;;8.52;4.40;;;;;;;19.38;44.25;99457.06;5009939;28;20159;-71
2022/06/21 08:16:13;;;;;;;7.88;3.67;;;;;;;19.47;44.14;99453.53;5020841;28;20147;-72
2022/06/21 08:18:47;;;;;;;10.02;4.72;;;;;;;19.43;42.91;99447.63;5013673;28;20072;-72
2022/06/21 08:21:19;;;;;;;9.57;3.95;;;;;;;19.71;43.64;99445.97;5021856;28;20052;-72
2022/06/21 08:23:51;;;;;;;9.65;4.88;;;;;;;19.76;47.16;99442.84;5022290;28;20053;-72
2022/06/21 08:26:23;;;;;;;6.72;4.15;;;;;;;19.94;46.79;99449.16;5034725;28;20133;-71
2022/06/21 08:28:56;;;;;;;7.40;5.30;;;;;;;20.12;47.14;99441.22;5014672;28;20052;-71
2022/06/21 08:31:30;;;;;;;14.38;6.38;;;;;;;19.97;47.20;99431.13;5026409;28;20049;-70
2022/06/21 08:34:02;;;;;;;8.95;5.82;;;;;;;19.71;48.20;99419.22;5006083;28;20053;-71
2022/06/21 08:36:32;;;;;;;9.68;4.95;;;;;;;19.78;48.16;99424.81;5015073;28;20045;-71
2022/06/21 08:39:03;;;;;;;12.23;5.28;;;;;;;19.70;48.23;99433.56;5025393;28;20045;-71
2022/06/21 08:42:03;;;;;;;12.55;5.50;;;;;;;19.46;48.91;99414.41;5016001;28;20075;-72
2022/06/21 08:45:40;;;;;;;7.10;4.78;;;;;;;19.51;47.92;99407.63;5021630;28;20049;-71
2022/06/21 08:48:02;;;;;;;10.50;4.40;;;;;;;19.68;48.22;99394.56;4999776;28;20056;-72
2022/06/21 08:50:58;;;;;;;7.82;4.43;;;;;;;19.75;47.14;99406.38;5014425;28;20045;-71
2022/06/21 08:53:40;;;;;;;;;;;;;;;19.56;47.28;99414.41;5010197;28;20042;-71
2022/06/21 08:56:14;;;;;;;7.22;4.55;;;;;;;19.45;47.86;99407.38;5018696;28;19935;-71
2022/06/21 08:58:51;;;;;;;14.95;6.05;;;;;;;19.62;47.79;99405.81;5016292;28;20056;-71
2022/06/21 09:01:23;;;;;;;9.98;4.82;;;;;;;19.84;47.11;99412.72;4989000;28;20058;-71
2022/06/21 09:04:02;;;;;;;8.25;4.47;;;;;;;20.25;46.45;99416.81;5015492;28;20055;-72
2022/06/21 09:06:44;;;;;;;9.18;4.68;;;;;;;20.36;45.76;99421.16;5015577;28;20128;-72
2022/06/21 09:09:29;;;;;;;6.13;3.97;;;;;;;20.57;45.46;99408.38;5005241;28;20046;-71
2022/06/21 09:12:07;;;;;;;11.40;6.38;;;;;;;20.70;44.61;99402.69;5009877;28;20135;-71
2022/06/21 09:14:56;;;;;;;8.23;4.15;;;;;;;20.84;43.91;99401.31;5023532;28;20071;-72
2022/06/21 09:17:32;;;;;;;11.88;5.40;;;;;;;21.09;43.21;99415.81;5009200;28;20049;-71
2022/06/21 09:20:13;;;;;;;9.82;4.63;;;;;;;21.38;42.29;99409.38;5024752;28;20609;-70
2022/06/21 09:22:56;;;;;;;9.05;4.97;;;;;;;21.11;42.29;99408.47;5013828;28;20046;-72
2022/06/21 09:25:29;;;;;;;6.25;4.80;;;;;;;20.98;42.95;99411.53;5021187;28;20148;-72
2022/06/21 09:28:06;;;;;;;11.45;4.88;;;;;;;20.90;42.55;99398.06;5009050;28;20049;-72
2022/06/21 09:30:38;;;;;;;8.85;5.50;;;;;;;20.62;42.77;99399.91;5025143;28;20045;-71
2022/06/21 09:33:09;;;;;;;12.25;4.80;;;;;;;20.38;43.74;99397.75;5024368;28;20048;-71
2022/06/21 09:35:44;;;;;;;7.88;4.80;;;;;;;20.27;44.15;99396.09;5024376;28;20103;-71
2022/06/21 09:38:18;;;;;;;6.07;4.82;;;;;;;20.29;44.20;99394.13;5019689;28;20053;-72
2022/06/21 09:40:51;;;;;;;7.82;5.10;;;;;;;20.99;42.82;99404.31;5010588;28;20061;-71
2022/06/21 09:43:31;;;;;;;9.70;4.03;;;;;;;21.28;42.05;99403.28;5020459;28;20069;-70
2022/06/21 09:46:06;;;;;;;10.77;4.60;;;;;;;21.23;41.90;99393.00;5009019;28;20076;-71
2022/06/21 09:48:40;;;;;;;12.50;4.97;;;;;;;20.90;42.15;99387.34;5014504;28;20064;-72
2022/06/21 09:51:15;;;;;;;14.05;4.95;;;;;;;20.76;43.16;99387.84;5049320;28;20037;-71
2022/06/21 09:53:48;;;;;;;;;;;;;;;20.77;43.02;99387.69;5034242;28;20049;-70
2022/06/21 09:56:26;;;;;;;7.38;4.05;;;;;;;20.56;43.70;99387.13;5010560;28;20591;-71
2022/06/21 09:58:59;;;;;;;12.38;5.20;;;;;;;20.36;44.02;99391.69;5018989;28;20117;-72
2022/06/21 10:01:35;;;;;;;11.80;4.50;;;;;;;20.19;44.17;99396.00;5014594;28;20042;-71
2022/06/21 10:04:10;;;;;;;9.80;4.30;;;;;;;20.07;44.97;99387.28;5027483;28;20049;-71
2022/06/21 10:06:44;;;;;;;7.32;3.88;;;;;;;20.08;44.93;99382.78;5020899;28;20049;-71
2022/06/21 10:09:25;;;;;;;9.00;3.90;;;;;;;20.09;45.15;99390.66;5016136;28;20049;-71
2022/06/21 10:12:02;;;;;;;10.93;4.80;;;;;;;19.93;45.12;99412.66;5037233;28;20061;-70
2022/06/21 10:14:53;;;;;;;9.50;5.10;;;;;;;19.69;45.88;99410.50;5015180;28;20133;-71
2022/06/21 10:17:48;;;;;;;12.23;5.47;;;;;;;19.91;45.20;99409.31;4995939;28;20052;-71
2022/06/21 10:20:38;;;;;;;13.80;5.13;;;;;;;21.14;42.79;99405.50;5011634;28;20052;-71
2022/06/21 10:23:24;;;;;;;15.07;5.53;;;;;;;22.75;39.73;99417.69;5034625;28;20048;-72
2022/06/21 10:26:14;;;;;;;5.68;4.43;;;;;;;23.87;37.35;99412.81;5007530;28;20136;-71
2022/06/21 10:29:13;;;;;;;9.88;4.50;;;;;;;24.08;36.31;99398.81;5022593;28;20045;-72
2022/06/21 10:31:54;;;;;;;10.60;4.75;;;;;;;24.54;35.55;99388.22;4985311;28;20855;-70
2022/06/21 10:34:52;;;;;;;11.48;4.40;;;;;;;24.66;35.06;99388.69;5020876;28;20049;-72
2022/06/21 10:37:37;;;;;;;8.45;4.85;;;;;;;25.26;34.18;99388.03;5027650;28;20056;-70
2022/06/21 10:40:18;;;;;;;;;;;;;;;25.64;32.67;99386.16;5010578;28;20141;-71
2022/06/21 10:43:13;;;;;;;7.50;4.32;;;;;;;26.21;31.89;99375.81;5026275;28;20632;-71
2022/06/21 10:45:44;;;;;;;10.07;5.07;;;;;;;26.21;31.63;99365.88;5022865;28;20148;-71
2022/06/21 10:48:44;;;;;;;7.93;3.97;;;;;;;26.26;32.35;99366.16;5036066;28;20049;-71
2022/06/21 10:51:19;;;;;;;10.95;4.28;;;;;;;26.52;31.35;99357.53;5027710;28;20735;-71
2022/06/21 10:54:26;;;;;;;9.38;4.40;;;;;;;26.70;31.25;99354.44;4992242;28;20750;-72
2022/06/21 10:57:13;;;;;;;10.10;3.53;;;;;;;25.48;32.69;99362.03;5028451;28;20048;-71
2022/06/21 11:02:51;;;;;;;8.20;3.97;;;;;;;23.62;35.90;99360.81;5011689;28;20057;-71
2022/06/21 11:05:22;;;;;;;6.47;3.67;;;;;;;23.41;36.74;99372.13;5038358;28;20040;-72
2022/06/21 11:07:56;;;;;;;6.38;3.55;;;;;;;23.10;36.92;99364.69;4994686;28;20367;-71
2022/06/21 11:10:29;;;;;;;12.27;3.45;;;;;;;23.08;35.87;99362.16;5030525;28;20125;-71
2022/06/21 11:13:04;;;;;;;6.20;2.63;;;;;;;22.80;35.71;99369.66;5029551;28;20134;-71
2022/06/21 11:15:45;;;;;;;10.68;3.47;;;;;;;22.34;37.18;99374.53;5011982;28;20128;-71
2022/06/21 11:18:26;;;;;;;6.13;3.25;;;;;;;21.81;37.62;99378.25;5023707;28;20062;-71
2022/06/21 11:21:02;;;;;;;11.38;3.22;;;;;;;21.88;37.93;99376.63;5032459;28;20119;-71
2022/06/21 11:23:42;;;;;;;9.52;3.65;;;;;;;22.03;37.89;99377.72;5026231;28;20135;-73
2022/06/21 11:26:22;;;;;;;6.68;3.15;;;;;;;21.95;38.40;99377.66;5026729;28;20132;-74
2022/06/21 11:28:55;;;;;;;6.20;3.45;;;;;;;21.95;38.37;99383.00;5029913;28;20048;-72
2022/06/21 11:31:32;;;;;;;7.88;3.63;;;;;;;22.06;38.45;99365.81;4975551;28;20126;-71
2022/06/21 11:34:08;;;;;;;9.00;2.83;;;;;;;22.05;37.61;99375.72;4977029;28;20043;-71
2022/06/21 11:36:49;;;;;;;5.75;2.38;;;;;;;22.08;38.12;99370.03;5013288;28;20049;-71
2022/06/21 11:39:30;;;;;;;5.30;2.63;;;;;;;22.26;37.79;99361.06;5011163;28;20053;-71
2022/06/21 11:42:09;;;;;;;10.10;2.90;;;;;;;22.50;37.98;99354.97;5011061;28;20053;-71
2022/06/21 11:45:09;;;;;;;7.13;3.20;;;;;;;22.53;38.58;99357.31;5025394;28;20049;-70
2022/06/21 11:47:49;;;;;;;4.95;2.40;;;;;;;22.69;37.86;99360.06;5025953;28;20049;-70
2022/06/21 11:50:19;;;;;;;6.68;3.10;;;;;;;22.91;37.23;99357.72;5033188;28;20049;-70
2022/06/21 11:53:31;;;;;;;6.18;3.13;;;;;;;22.80;37.22;99371.50;5034694;28;20049;-70
2022/06/21 11:56:01;;;;;;;3.63;2.28;;;;;;;22.65;37.92;99357.88;4980459;28;20053;-70
2022/06/21 11:58:32;;;;;;;6.57;3.13;;;;;;;22.54;36.66;99352.78;5034801;28;20049;-70
2022/06/21 12:01:06;;;;;;;8.32;3.17;;;;;;;22.36;37.33;99353.72;5033073;28;20056;-70
2022/06/21 12:03:49;;;;;;;8.75;2.85;;;;;;;22.36;37.58;99351.03;5029128;28;20049;-69
2022/06/21 12:06:29;;;;;;;7.40;3.60;;;;;;;22.12;38.35;99349.03;5018281;28;20046;-69
2022/06/21 12:09:01;;;;;;;5.18;2.15;;;;;;;22.20;37.90;99349.13;5019424;28;20053;-71
2022/06/21 12:11:36;;;;;;;9.30;3.25;;;;;;;22.31;38.05;99345.31;5010143;28;20477;-70
2022/06/21 12:14:19;;;;;;;8.20;3.08;;;;;;;22.48;37.24;99339.00;5020751;28;20141;-71
2022/06/21 12:16:57;;;;;;;6.45;3.00;;;;;;;22.49;37.17;99337.97;5018133;28;20049;-72